Time;durP1;ratioP1;P1;durP2;ratioP2;P2;SDS_P1;SDS_P2;PMS_P1;PMS_P2;Temp;Humidity;BMP_temperature;BMP_pressure;BME280_temperature;BME280_humidity;BME280_pressure;Samples;Min_cycle;Max_cycle;Signal;HPM_P1;HPM_P2
2023/06/18 00:00:23;;;;;;;14.10;8.55;;;;;;;16.03;84.45;100522.66;2105460;28;20041;-68
2023/06/18 00:01:32;;;;;;;13.35;8.40;;;;;;;16.04;84.47;100529.69;2112462;28;20126;-68
2023/06/18 00:02:43;;;;;;;13.50;8.93;;;;;;;16.05;84.43;100525.06;2088637;28;20030;-68
2023/06/18 00:03:59;;;;;;;15.20;8.65;;;;;;;16.09;84.35;100526.03;2102715;27;20139;-68
2023/06/18 00:05:01;;;;;;;11.57;8.30;;;;;;;16.08;84.41;100525.25;2103924;28;20982;-68
2023/06/18 00:06:05;;;;;;;12.77;8.77;;;;;;;16.09;84.20;100526.03;2098390;28;20033;-68
2023/06/18 00:07:26;;;;;;;13.45;9.07;;;;;;;16.08;83.98;100521.72;2105148;28;20791;-69
2023/06/18 00:08:28;;;;;;;13.48;8.50;;;;;;;16.06;83.67;100522.03;2088221;28;20868;-69
2023/06/18 00:09:33;;;;;;;16.35;9.00;;;;;;;16.08;84.06;100524.41;2090292;28;20063;-69
2023/06/18 00:10:57;;;;;;;12.90;8.60;;;;;;;16.06;83.81;100527.47;2097996;28;20033;-68
2023/06/18 00:12:01;;;;;;;14.43;8.57;;;;;;;16.06;83.52;100526.66;2105855;28;20036;-69
2023/06/18 00:13:23;;;;;;;12.02;8.43;;;;;;;16.03;83.60;100524.59;2113206;27;20028;-68
2023/06/18 00:14:24;;;;;;;15.10;8.25;;;;;;;16.03;83.62;100516.44;2110131;28;20044;-68
2023/06/18 00:15:26;;;;;;;13.82;8.38;;;;;;;15.99;83.56;100517.09;2106169;28;20028;-69
2023/06/18 00:16:31;;;;;;;16.05;9.65;;;;;;;15.94;83.42;100514.50;2106510;28;20160;-69
2023/06/18 00:17:55;;;;;;;14.25;8.75;;;;;;;15.92;83.93;100522.19;2090405;28;20037;-68
2023/06/18 00:18:59;;;;;;;14.55;9.25;;;;;;;15.93;84.17;100518.34;2088820;28;20894;-68
2023/06/18 00:20:01;;;;;;;13.68;8.73;;;;;;;15.93;83.88;100518.34;2098551;28;20061;-68
2023/06/18 00:21:07;;;;;;;12.63;8.90;;;;;;;15.94;83.99;100511.78;2105111;28;20028;-69
2023/06/18 00:22:14;;;;;;;15.43;8.85;;;;;;;15.91;84.02;100515.13;2113478;28;20031;-69
2023/06/18 00:23:16;;;;;;;13.18;8.90;;;;;;;15.90;83.79;100521.69;2097320;28;20246;-69
2023/06/18 00:24:18;;;;;;;12.63;8.73;;;;;;;15.89;83.90;100517.38;2098317;28;21013;-69
2023/06/18 00:25:21;;;;;;;11.35;8.82;;;;;;;15.88;83.84;100512.25;2097691;28;20040;-69
2023/06/18 00:26:25;;;;;;;11.57;8.32;;;;;;;15.88;84.07;100517.69;2091400;28;20029;-69
2023/06/18 00:27:29;;;;;;;12.73;8.23;;;;;;;15.90;84.23;100518.19;2099198;28;20123;-69
2023/06/18 00:28:31;;;;;;;12.18;8.15;;;;;;;15.89;84.24;100519.25;2099385;28;20025;-69
2023/06/18 00:29:35;;;;;;;10.43;7.88;;;;;;;15.90;83.90;100520.88;2089553;28;20069;-69
2023/06/18 00:30:38;;;;;;;12.77;8.18;;;;;;;15.92;84.24;100522.19;2085182;28;20026;-69
2023/06/18 00:31:39;;;;;;;12.10;8.57;;;;;;;15.95;84.08;100526.16;2091276;28;20119;-69
2023/06/18 00:32:44;;;;;;;11.88;7.85;;;;;;;15.97;84.23;100527.44;2092029;28;20052;-69
2023/06/18 00:33:46;;;;;;;13.68;8.43;;;;;;;15.97;84.18;100530.16;2091498;28;20044;-69
2023/06/18 00:34:47;;;;;;;11.32;7.75;;;;;;;15.96;83.84;100525.06;2100294;28;20036;-70
2023/06/18 00:35:57;;;;;;;12.50;8.23;;;;;;;15.98;84.11;100530.94;2108110;28;20039;-69
2023/06/18 00:37:00;;;;;;;12.18;7.82;;;;;;;15.98;83.63;100520.91;2094127;28;20084;-69
2023/06/18 00:38:05;;;;;;;10.15;7.72;;;;;;;15.99;83.61;100530.63;2100740;28;20067;-70
2023/06/18 00:39:35;;;;;;;12.85;8.15;;;;;;;16.02;84.03;100531.13;2101039;28;20721;-69
2023/06/18 00:40:39;;;;;;;11.98;8.80;;;;;;;16.03;83.63;100532.72;2106557;28;20032;-69
2023/06/18 00:41:46;;;;;;;11.73;7.97;;;;;;;16.02;83.54;100539.28;2108450;28;20052;-70
2023/06/18 00:42:52;;;;;;;11.80;8.00;;;;;;;16.01;83.35;100541.16;2108850;28;21252;-70
2023/06/18 00:43:57;;;;;;;13.70;7.78;;;;;;;16.04;83.40;100542.44;2091883;28;20040;-69
2023/06/18 00:44:59;;;;;;;11.88;8.07;;;;;;;16.03;83.19;100541.66;2084207;28;20042;-70
2023/06/18 00:46:02;;;;;;;11.73;7.93;;;;;;;16.02;83.30;100541.97;2099557;28;20872;-70
2023/06/18 00:47:07;;;;;;;10.43;7.45;;;;;;;15.98;82.98;100541.78;2091767;28;20942;-70
2023/06/18 00:48:28;;;;;;;11.90;8.23;;;;;;;15.90;83.18;100540.66;2100879;27;20163;-70
2023/06/18 00:49:50;;;;;;;12.25;8.65;;;;;;;15.88;83.03;100536.66;2098624;28;20053;-70
2023/06/18 00:50:54;;;;;;;10.88;8.02;;;;;;;15.81;83.25;100537.13;2099062;28;20024;-70
2023/06/18 00:51:59;;;;;;;10.32;7.30;;;;;;;15.81;83.79;100539.84;2109057;28;20127;-70
2023/06/18 00:53:01;;;;;;;9.48;7.18;;;;;;;15.80;83.71;100535.53;2091468;28;20152;-70
2023/06/18 00:54:27;;;;;;;10.63;7.30;;;;;;;15.79;83.88;100538.53;2084790;28;20034;-68
2023/06/18 00:55:37;;;;;;;11.27;7.38;;;;;;;15.81;84.09;100547.16;2097412;28;20836;-68
2023/06/18 00:56:51;;;;;;;10.07;7.30;;;;;;;15.82;84.13;100537.91;2102849;28;20990;-68
2023/06/18 00:57:59;;;;;;;9.27;6.88;;;;;;;15.77;83.95;100549.72;2101432;28;20041;-68
2023/06/18 00:59:24;;;;;;;10.02;7.20;;;;;;;15.76;84.17;100545.38;2111150;28;20782;-68
2023/06/18 01:00:28;;;;;;;10.90;7.20;;;;;;;15.73;84.38;100549.53;2108515;28;20067;-68
2023/06/18 01:01:36;;;;;;;9.07;6.93;;;;;;;15.73;84.39;100540.59;2099692;28;20040;-68
2023/06/18 01:02:45;;;;;;;10.80;6.78;;;;;;;15.75;84.41;100555.44;2100964;28;20109;-69
2023/06/18 01:03:49;;;;;;;9.95;6.75;;;;;;;15.78;84.43;100545.88;2107863;28;20040;-68
2023/06/18 01:04:57;;;;;;;11.75;6.80;;;;;;;15.79;84.54;100547.47;2108188;28;20025;-69
2023/06/18 01:06:03;;;;;;;11.35;7.15;;;;;;;15.77;84.23;100541.59;2103628;28;20186;-68
2023/06/18 01:07:13;;;;;;;11.52;6.88;;;;;;;15.77;84.14;100536.16;2099711;28;20051;-68
2023/06/18 01:08:17;;;;;;;10.48;6.63;;;;;;;15.79;84.52;100533.91;2107684;28;20873;-69
2023/06/18 01:09:42;;;;;;;9.63;6.75;;;;;;;15.81;84.78;100528.19;2114831;28;20024;-69
2023/06/18 01:10:46;;;;;;;11.55;6.85;;;;;;;15.78;84.40;100534.25;2108849;28;20978;-69
2023/06/18 01:11:51;;;;;;;9.25;6.30;;;;;;;15.77;84.59;100536.16;2106737;28;20034;-69
2023/06/18 01:12:54;;;;;;;10.07;6.47;;;;;;;15.76;84.36;100534.53;2098825;28;20041;-69
2023/06/18 01:13:56;;;;;;;9.23;6.15;;;;;;;15.78;84.60;100532.31;2098712;28;20021;-69
2023/06/18 01:14:58;;;;;;;9.80;6.30;;;;;;;15.78;84.46;100537.75;2100144;28;20135;-69
2023/06/18 01:16:05;;;;;;;9.23;6.68;;;;;;;15.77;84.60;100536.16;2089651;28;20999;-68
2023/06/18 01:17:06;;;;;;;8.73;6.30;;;;;;;15.77;84.40;100525.31;2083254;28;20604;-68
2023/06/18 01:18:09;;;;;;;8.23;6.40;;;;;;;15.76;84.43;100529.13;2089763;28;20963;-68
2023/06/18 01:19:47;;;;;;;8.55;6.28;;;;;;;15.75;84.33;100530.25;2099247;28;20071;-68
2023/06/18 01:20:55;;;;;;;8.75;6.03;;;;;;;15.69;84.26;100534.19;2107275;28;20036;-69
2023/06/18 01:22:06;;;;;;;7.97;5.88;;;;;;;15.64;84.45;100531.63;2106324;28;20046;-69
2023/06/18 01:23:20;;;;;;;10.45;6.38;;;;;;;15.62;84.89;100540.06;2107049;28;20079;-68
2023/06/18 01:24:27;;;;;;;8.38;6.43;;;;;;;15.61;84.71;100538.47;2114714;28;20067;-69
2023/06/18 01:25:36;;;;;;;8.50;5.63;;;;;;;15.62;84.89;100539.25;2107817;28;20035;-69
2023/06/18 01:26:41;;;;;;;;;;;;;;;15.63;84.88;100540.84;2091438;28;20872;-68
2023/06/18 09:45:20;;;;;;;6.82;3.95;;;;;;;21.06;63.18;100716.69;2127638;27;20112;-67
2023/06/18 09:46:25;;;;;;;6.18;4.30;;;;;;;21.04;62.66;100717.00;2119335;27;21317;-67
2023/06/18 09:47:27;;;;;;;7.70;4.43;;;;;;;20.76;63.17;100718.88;2118487;27;20893;-67
2023/06/18 09:48:30;;;;;;;5.78;4.35;;;;;;;20.77;63.13;100718.53;2107510;28;20147;-68
2023/06/18 09:49:34;;;;;;;6.35;4.20;;;;;;;20.78;63.46;100708.41;2105235;27;20048;-68
2023/06/18 09:50:40;;;;;;;5.32;4.32;;;;;;;20.82;63.79;100714.78;2080654;28;21181;-68
2023/06/18 09:51:42;;;;;;;5.93;4.53;;;;;;;20.81;63.44;100724.13;2097015;27;20051;-68
2023/06/18 09:52:46;;;;;;;7.05;4.70;;;;;;;20.80;63.37;100717.06;2111834;27;20119;-68
2023/06/18 09:54:00;;;;;;;6.57;4.47;;;;;;;20.78;63.27;100719.34;2097026;28;20021;-68
2023/06/18 09:55:02;;;;;;;6.10;4.80;;;;;;;20.74;63.21;100729.34;2111984;27;20842;-67
2023/06/18 09:56:17;;;;;;;6.43;4.22;;;;;;;20.65;62.53;100723.22;2094977;28;20100;-68
2023/06/18 09:57:19;;;;;;;6.65;4.80;;;;;;;20.66;63.10;100719.38;2097054;28;20037;-71
2023/06/18 09:58:45;;;;;;;6.18;4.50;;;;;;;20.74;62.97;100712.97;2095196;28;20892;-68
2023/06/18 10:00:09;;;;;;;8.30;4.75;;;;;;;20.81;62.95;100715.94;2116076;27;20028;-67
2023/06/18 10:01:15;;;;;;;7.53;5.30;;;;;;;20.83;62.66;100721.84;2110278;28;20035;-68
2023/06/18 10:02:24;;;;;;;6.22;4.82;;;;;;;20.83;62.82;100725.34;2096950;28;20825;-68
2023/06/18 10:03:26;;;;;;;6.82;5.07;;;;;;;20.86;62.59;100715.69;2097312;28;20954;-68
2023/06/18 10:04:28;;;;;;;9.23;5.45;;;;;;;20.87;62.59;100717.28;2096274;28;20148;-68
2023/06/18 10:05:31;;;;;;;6.97;4.97;;;;;;;20.88;62.84;100720.81;2103608;28;20040;-68
2023/06/18 10:06:32;;;;;;;7.55;4.82;;;;;;;20.78;62.33;100713.88;2111956;27;20040;-68
2023/06/18 10:07:35;;;;;;;7.25;5.00;;;;;;;20.69;62.65;100715.94;2103066;28;20071;-68
2023/06/18 10:09:02;;;;;;;6.60;5.35;;;;;;;20.64;63.31;100718.91;2097855;28;20174;-68
2023/06/18 10:10:10;;;;;;;7.90;5.22;;;;;;;20.64;63.48;100716.16;2104740;28;20151;-68
2023/06/18 10:11:12;;;;;;;7.55;5.32;;;;;;;20.67;63.74;100724.47;2104649;28;20883;-68
2023/06/18 10:12:15;;;;;;;7.22;5.00;;;;;;;20.61;63.82;100725.84;2112713;28;20028;-68
2023/06/18 10:13:17;;;;;;;7.07;5.72;;;;;;;20.67;63.96;100729.94;2095813;28;20088;-68
2023/06/18 10:14:22;;;;;;;11.07;6.55;;;;;;;20.69;64.19;100724.13;2095965;28;20022;-68
2023/06/18 10:15:25;;;;;;;9.13;5.40;;;;;;;20.65;64.25;100732.22;2096229;28;20033;-68
2023/06/18 10:16:30;;;;;;;9.60;6.55;;;;;;;20.52;64.54;100717.78;2095540;28;20931;-68
2023/06/18 10:17:36;;;;;;;8.18;6.35;;;;;;;20.41;65.16;100726.72;2103652;28;20036;-68
2023/06/18 10:18:40;;;;;;;8.00;6.00;;;;;;;20.31;65.54;100722.50;2088814;28;20080;-68
2023/06/18 10:19:52;;;;;;;8.50;6.20;;;;;;;20.32;65.76;100718.63;2096070;28;20064;-68
2023/06/18 10:20:57;;;;;;;8.57;6.40;;;;;;;20.26;65.79;100722.72;2105317;28;20098;-68
2023/06/18 10:22:00;;;;;;;9.50;6.75;;;;;;;20.26;65.94;100717.25;2104269;28;20134;-68
2023/06/18 10:23:06;;;;;;;9.95;7.00;;;;;;;20.18;66.54;100729.09;2095954;28;20076;-68
2023/06/18 10:24:20;;;;;;;10.38;6.43;;;;;;;20.17;66.57;100719.31;2105522;27;20776;-68
2023/06/18 10:25:21;;;;;;;9.30;6.28;;;;;;;20.32;66.72;100721.38;2103632;28;20068;-68
2023/06/18 10:26:23;;;;;;;7.70;5.35;;;;;;;20.45;66.35;100716.72;2104416;27;20032;-68
2023/06/18 10:27:26;;;;;;;8.27;6.00;;;;;;;20.64;66.04;100718.91;2121537;27;20034;-68
2023/06/18 10:28:32;;;;;;;9.88;6.40;;;;;;;20.70;65.34;100725.72;2112132;28;20024;-68
2023/06/18 10:29:34;;;;;;;7.88;5.45;;;;;;;20.68;65.02;100722.53;2095537;28;20033;-68
2023/06/18 10:30:36;;;;;;;7.93;5.53;;;;;;;20.64;64.73;100719.69;2079233;28;20120;-68
2023/06/18 10:31:37;;;;;;;7.15;5.32;;;;;;;20.47;64.34;100717.97;2088080;28;20018;-68
2023/06/18 10:32:41;;;;;;;8.57;5.43;;;;;;;20.35;64.64;100717.97;2097008;28;20137;-68
2023/06/18 10:33:45;;;;;;;8.02;5.65;;;;;;;20.37;65.13;100721.16;2096915;28;20951;-68
2023/06/18 10:34:47;;;;;;;7.93;5.82;;;;;;;20.26;65.18;100714.53;2089475;28;20858;-68
2023/06/18 10:35:50;;;;;;;7.50;5.53;;;;;;;20.25;65.40;100718.41;2097162;28;20025;-68
2023/06/18 10:36:52;;;;;;;7.97;5.50;;;;;;;20.37;65.59;100715.69;2097362;28;20962;-68
2023/06/18 10:37:54;;;;;;;9.00;5.85;;;;;;;20.47;65.39;100711.72;2105860;28;20945;-68
2023/06/18 10:38:57;;;;;;;7.80;5.68;;;;;;;20.47;65.35;100701.56;2096662;28;20904;-68
2023/06/18 10:40:03;;;;;;;7.32;5.60;;;;;;;20.52;65.07;100723.25;2098073;28;20047;-68
2023/06/18 10:41:13;;;;;;;7.88;5.80;;;;;;;20.42;64.87;100711.94;2105193;28;20056;-68
2023/06/18 10:42:15;;;;;;;9.40;5.20;;;;;;;20.36;65.47;100719.53;2106161;28;20036;-68
2023/06/18 10:43:24;;;;;;;9.45;5.50;;;;;;;20.46;65.53;100713.66;2114482;28;20035;-68
2023/06/18 10:44:47;;;;;;;8.38;5.70;;;;;;;20.60;65.19;100718.78;2096315;28;20211;-68
2023/06/18 10:46:12;;;;;;;7.32;5.95;;;;;;;20.57;64.83;100723.00;2104162;28;20044;-68
2023/06/18 10:47:30;;;;;;;7.25;5.60;;;;;;;20.56;64.94;100715.94;2104955;28;20312;-68
2023/06/18 10:48:32;;;;;;;6.72;5.13;;;;;;;20.45;64.43;100727.63;2082431;28;20069;-68
2023/06/18 10:49:35;;;;;;;10.73;5.75;;;;;;;20.33;64.55;100715.59;2089017;28;20912;-68
2023/06/18 10:50:36;;;;;;;7.18;5.32;;;;;;;20.34;64.76;100716.38;2109750;28;20130;-68
2023/06/18 10:51:37;;;;;;;7.40;5.38;;;;;;;20.34;64.88;100716.38;2105429;28;20135;-68
2023/06/18 10:52:39;;;;;;;10.30;5.85;;;;;;;20.40;65.15;100720.47;2105048;28;20037;-68
2023/06/18 10:53:42;;;;;;;8.25;5.30;;;;;;;20.48;65.03;100713.28;2097050;28;20045;-68
2023/06/18 10:54:44;;;;;;;7.25;5.20;;;;;;;20.45;65.21;100706.56;2088921;28;20042;-69
2023/06/18 10:55:57;;;;;;;9.18;5.45;;;;;;;20.64;65.15;100722.41;2104952;28;21358;-68
2023/06/18 10:56:59;;;;;;;7.63;5.60;;;;;;;20.67;65.48;100712.75;2101048;28;20032;-68
2023/06/18 10:58:04;;;;;;;8.57;6.13;;;;;;;20.63;65.27;100707.19;2108300;28;20037;-68
2023/06/18 10:59:06;;;;;;;7.40;5.90;;;;;;;20.57;65.33;100720.25;2099542;28;20161;-68
2023/06/18 11:00:29;;;;;;;7.13;5.05;;;;;;;20.64;64.99;100707.97;2083449;28;20037;-68
2023/06/18 11:01:32;;;;;;;7.30;5.20;;;;;;;20.64;64.51;100716.16;2089005;28;20041;-68
2023/06/18 11:02:37;;;;;;;7.10;5.40;;;;;;;20.65;64.88;100720.47;2091969;28;20853;-68
2023/06/18 11:03:40;;;;;;;7.13;4.97;;;;;;;20.58;65.02;100721.84;2100355;28;21322;-68
2023/06/18 11:04:41;;;;;;;7.88;4.97;;;;;;;20.64;64.13;100724.38;2108313;28;20870;-68
2023/06/18 11:05:53;;;;;;;7.30;5.38;;;;;;;20.55;63.89;100706.16;2108295;28;20025;-68
2023/06/18 11:07:23;;;;;;;7.75;5.40;;;;;;;20.55;64.68;100716.28;2109146;28;20020;-68
2023/06/18 11:08:32;;;;;;;9.32;5.53;;;;;;;20.34;63.94;100721.84;2091180;28;20048;-68
2023/06/18 11:09:46;;;;;;;7.28;5.60;;;;;;;20.15;63.65;100719.66;2093372;28;20049;-68
2023/06/18 11:10:48;;;;;;;8.10;5.75;;;;;;;20.04;64.61;100708.34;2101420;28;20816;-68
2023/06/18 11:11:50;;;;;;;8.57;5.43;;;;;;;20.06;65.42;100722.47;2099174;28;20032;-68
2023/06/18 11:12:54;;;;;;;7.07;5.80;;;;;;;20.07;65.74;100710.41;2091193;28;20063;-68
2023/06/18 11:13:56;;;;;;;7.18;5.03;;;;;;;20.04;65.96;100710.28;2075577;28;20838;-68
2023/06/18 11:15:20;;;;;;;7.68;5.50;;;;;;;20.07;65.75;100713.16;2083460;28;20034;-68
2023/06/18 11:16:23;;;;;;;6.60;5.10;;;;;;;20.15;65.71;100708.75;2102809;28;20211;-68
2023/06/18 11:17:26;;;;;;;7.63;5.50;;;;;;;20.24;65.61;100711.34;2099744;28;20029;-68
2023/06/18 11:18:29;;;;;;;7.18;5.68;;;;;;;20.30;65.65;100708.06;2091164;28;20033;-68
2023/06/18 11:19:32;;;;;;;6.90;5.20;;;;;;;20.31;65.46;100717.06;2091136;28;20067;-68
2023/06/18 11:20:38;;;;;;;6.45;5.07;;;;;;;20.29;64.60;100708.41;2099439;28;20033;-68
2023/06/18 11:21:43;;;;;;;8.90;5.55;;;;;;;20.28;64.57;100701.34;2090782;28;20034;-68
2023/06/18 11:22:46;;;;;;;6.53;5.28;;;;;;;20.29;63.96;100703.72;2092833;28;20018;-68
2023/06/18 11:23:49;;;;;;;7.32;5.15;;;;;;;20.22;64.16;100705.44;2117069;28;20185;-68
2023/06/18 11:24:52;;;;;;;6.25;5.00;;;;;;;20.26;64.46;100698.94;2107567;28;20028;-67
2023/06/18 11:25:55;;;;;;;7.30;5.15;;;;;;;20.28;64.26;100691.22;2108332;28;20755;-67
2023/06/18 11:26:56;;;;;;;9.52;5.82;;;;;;;20.33;64.50;100693.75;2098952;28;20052;-67
2023/06/18 11:28:01;;;;;;;7.38;4.45;;;;;;;20.50;64.11;100697.38;2091892;28;20060;-67
2023/06/18 11:29:04;;;;;;;9.15;4.80;;;;;;;20.64;63.61;100702.50;2097521;28;20820;-67
2023/06/18 11:30:11;;;;;;;6.15;4.80;;;;;;;20.65;62.86;100699.44;2091326;28;20033;-67
2023/06/18 11:31:12;;;;;;;7.00;5.05;;;;;;;20.52;62.47;100695.94;2090307;28;20154;-67
2023/06/18 11:32:14;;;;;;;8.85;4.43;;;;;;;20.49;63.19;100695.75;2091060;28;20767;-67
2023/06/18 11:33:26;;;;;;;6.00;4.60;;;;;;;20.48;62.14;100694.97;2100153;28;20029;-67
2023/06/18 11:34:27;;;;;;;5.40;4.40;;;;;;;20.32;62.24;100702.25;2099191;28;20029;-67
2023/06/18 11:35:32;;;;;;;6.13;4.38;;;;;;;20.31;62.69;100703.41;2099567;28;20028;-68
2023/06/18 11:36:33;;;;;;;6.18;4.47;;;;;;;20.36;62.94;100695.78;2099096;28;20068;-67
2023/06/18 11:37:37;;;;;;;5.57;4.22;;;;;;;20.43;63.06;100689.75;2091296;28;20739;-67
2023/06/18 11:38:40;;;;;;;6.18;4.95;;;;;;;20.49;63.75;100696.59;2108143;28;20131;-67
2023/06/18 11:39:41;;;;;;;9.25;4.95;;;;;;;20.51;64.39;100699.78;2116161;28;20028;-67
2023/06/18 11:40:53;;;;;;;6.28;4.75;;;;;;;20.47;64.77;100698.84;2098998;28;20044;-67
2023/06/18 11:42:30;;;;;;;5.65;4.50;;;;;;;20.53;64.53;100696.72;2102586;28;20041;-67
2023/06/18 11:43:52;;;;;;;6.05;4.68;;;;;;;20.50;64.26;100698.16;2122805;27;20031;-67
2023/06/18 11:45:01;;;;;;;5.03;4.53;;;;;;;20.48;64.67;100689.50;2112517;28;20814;-68
2023/06/18 11:46:03;;;;;;;5.53;4.60;;;;;;;20.41;64.40;100696.69;2100742;28;20029;-67
2023/06/18 11:47:08;;;;;;;5.63;4.55;;;;;;;20.31;64.73;100701.47;2099325;28;20025;-67
2023/06/18 11:48:10;;;;;;;7.07;4.93;;;;;;;20.25;64.89;100699.31;2099822;28;20095;-67
2023/06/18 11:49:14;;;;;;;6.30;4.78;;;;;;;20.07;65.83;100699.50;2099432;28;20026;-68
2023/06/18 11:50:16;;;;;;;8.40;5.28;;;;;;;20.12;66.01;100696.56;2099606;28;20032;-67
2023/06/18 11:51:19;;;;;;;8.20;4.80;;;;;;;20.18;65.74;100697.13;2107794;28;20021;-68
2023/06/18 11:52:23;;;;;;;8.25;5.13;;;;;;;20.21;65.85;100690.19;2116837;28;20109;-68
2023/06/18 11:53:25;;;;;;;6.55;4.28;;;;;;;20.26;66.04;100695.44;2107399;28;20775;-67
2023/06/18 11:54:27;;;;;;;6.05;4.40;;;;;;;20.23;65.54;100687.91;2098941;28;20072;-68
2023/06/18 11:55:29;;;;;;;5.25;4.45;;;;;;;20.23;65.44;100696.09;2099340;28;20134;-68
2023/06/18 11:56:32;;;;;;;6.15;4.32;;;;;;;20.28;65.22;100698.63;2082822;28;20049;-67
2023/06/18 11:57:34;;;;;;;7.05;4.60;;;;;;;20.29;65.02;100700.22;2099707;27;20025;-67
2023/06/18 11:58:36;;;;;;;6.68;4.88;;;;;;;20.32;64.50;100685.88;2107050;28;20735;-67
2023/06/18 11:59:39;;;;;;;6.20;4.80;;;;;;;20.38;64.40;100696.22;2090702;28;20749;-67
2023/06/18 12:00:40;;;;;;;8.13;4.50;;;;;;;20.31;64.74;100695.22;2099524;28;20040;-67
2023/06/18 12:01:45;;;;;;;6.45;4.70;;;;;;;20.10;65.11;100696.09;2090279;28;20068;-67
2023/06/18 12:02:48;;;;;;;5.53;4.70;;;;;;;20.07;65.31;100699.50;2083802;28;20026;-68
2023/06/18 12:03:51;;;;;;;6.75;5.20;;;;;;;20.07;65.14;100702.22;2100244;28;20087;-67
2023/06/18 12:04:52;;;;;;;7.13;4.95;;;;;;;20.03;65.43;100700.53;2090655;28;20040;-67
2023/06/18 12:05:54;;;;;;;8.05;4.60;;;;;;;19.96;65.64;100701.09;2090864;28;20037;-67
2023/06/18 12:06:56;;;;;;;6.13;4.93;;;;;;;19.89;65.13;100700.81;2099393;28;20032;-67
2023/06/18 12:08:06;;;;;;;7.05;5.03;;;;;;;19.87;65.65;100703.09;2081813;28;20030;-68
2023/06/18 12:09:28;;;;;;;5.70;4.72;;;;;;;19.68;66.78;100706.34;2093442;28;20140;-67
2023/06/18 12:10:30;;;;;;;6.75;5.18;;;;;;;19.66;67.85;100703.94;2097389;28;20033;-68
2023/06/18 12:11:50;;;;;;;6.85;4.57;;;;;;;19.64;67.89;100711.69;2099812;28;20025;-67
2023/06/18 12:13:06;;;;;;;8.40;4.53;;;;;;;19.59;69.60;100705.59;2107414;28;20044;-67
2023/06/18 12:14:15;;;;;;;8.00;4.78;;;;;;;19.56;70.55;100709.00;2110080;28;20035;-67
2023/06/18 12:15:25;;;;;;;8.65;5.07;;;;;;;19.63;69.96;100699.13;2107644;28;20029;-67
2023/06/18 12:16:29;;;;;;;6.18;5.38;;;;;;;19.69;69.85;100697.03;2090521;28;20930;-67
2023/06/18 12:17:52;;;;;;;7.63;5.32;;;;;;;19.79;69.81;100704.78;2091936;28;20040;-67
2023/06/18 12:19:00;;;;;;;5.90;5.13;;;;;;;19.78;69.50;100699.66;2102409;28;20021;-68
2023/06/18 12:20:08;;;;;;;7.40;5.25;;;;;;;19.74;70.06;100706.94;2099845;28;20882;-67
2023/06/18 12:21:10;;;;;;;7.45;5.30;;;;;;;19.77;69.87;100698.88;2100138;28;20052;-68
2023/06/18 12:22:13;;;;;;;9.75;5.60;;;;;;;19.68;69.67;100704.41;2107433;28;20021;-67
2023/06/18 12:23:15;;;;;;;7.85;5.75;;;;;;;19.65;70.17;100713.28;2090446;28;20036;-67
2023/06/18 12:24:16;;;;;;;6.00;4.97;;;;;;;19.45;69.06;100709.44;2090674;28;20049;-67
2023/06/18 12:25:21;;;;;;;8.98;6.32;;;;;;;19.30;69.35;100706.50;2098682;28;20041;-68
2023/06/18 12:26:23;;;;;;;7.60;5.28;;;;;;;19.26;69.91;100705.56;2083400;28;20974;-68
2023/06/18 12:27:25;;;;;;;6.22;5.05;;;;;;;19.37;70.40;100704.03;2098811;28;20978;-68
2023/06/18 12:28:33;;;;;;;6.43;5.00;;;;;;;19.50;70.51;100705.69;2098114;28;20148;-68
2023/06/18 12:29:34;;;;;;;6.25;5.10;;;;;;;19.57;70.13;100714.09;2107073;28;20055;-68
2023/06/18 12:30:43;;;;;;;6.22;4.78;;;;;;;19.62;69.25;100716.63;2105517;28;20768;-68
2023/06/18 12:32:04;;;;;;;6.00;5.35;;;;;;;19.74;68.76;100698.75;2105820;28;21053;-67
2023/06/18 12:33:10;;;;;;;6.35;5.00;;;;;;;19.81;68.99;100709.91;2106266;28;20036;-66
2023/06/18 12:34:24;;;;;;;7.00;5.30;;;;;;;19.67;68.31;100699.28;2100953;28;20159;-66
2023/06/18 12:35:26;;;;;;;9.23;5.03;;;;;;;19.65;67.67;100698.84;2104460;27;20036;-66
2023/06/18 12:36:31;;;;;;;7.28;5.40;;;;;;;19.66;68.05;100703.94;2112703;27;20020;-66
2023/06/18 12:37:37;;;;;;;9.60;5.30;;;;;;;19.58;67.77;100713.00;2088263;28;20179;-67
2023/06/18 12:38:43;;;;;;;6.95;4.95;;;;;;;19.52;67.89;100702.63;2082215;28;20034;-69
2023/06/18 12:40:06;;;;;;;6.28;5.18;;;;;;;19.49;67.73;100714.22;2097200;28;20943;-68
2023/06/18 12:41:09;;;;;;;6.75;5.13;;;;;;;19.47;67.77;100711.81;2092166;28;20946;-67
2023/06/18 12:42:14;;;;;;;7.75;4.95;;;;;;;19.45;67.26;100714.06;2096736;28;20037;-67
2023/06/18 12:43:18;;;;;;;6.07;4.50;;;;;;;19.40;65.61;100708.81;2096314;28;20037;-67
2023/06/18 12:44:21;;;;;;;9.05;4.75;;;;;;;19.33;65.15;100711.31;2096233;28;20033;-67
2023/06/18 12:45:25;;;;;;;6.00;5.00;;;;;;;19.27;65.64;100718.88;2105731;28;20028;-67
2023/06/18 12:46:29;;;;;;;6.80;4.57;;;;;;;19.06;65.99;100707.19;2096658;28;20037;-68
2023/06/18 12:47:55;;;;;;;6.68;4.50;;;;;;;19.11;66.66;100710.50;2089642;28;20247;-67
2023/06/18 12:48:58;;;;;;;5.90;4.70;;;;;;;19.20;67.08;100724.06;2097241;28;20126;-67
2023/06/18 12:49:59;;;;;;;8.40;4.90;;;;;;;19.17;66.47;100711.09;2088816;28;20063;-68
2023/06/18 12:51:02;;;;;;;8.55;4.57;;;;;;;19.08;66.54;100700.25;2087004;28;20167;-67
2023/06/18 12:52:14;;;;;;;8.93;5.32;;;;;;;19.19;66.97;100706.91;2096370;28;20549;-68
2023/06/18 12:53:20;;;;;;;6.38;4.93;;;;;;;19.31;67.04;100705.38;2103823;28;20024;-69
2023/06/18 12:54:23;;;;;;;5.82;4.80;;;;;;;19.38;67.56;100702.91;2088929;28;20186;-68
2023/06/18 12:55:28;;;;;;;7.20;5.00;;;;;;;19.47;67.41;100706.34;2088348;28;20812;-67
2023/06/18 12:56:33;;;;;;;5.82;4.72;;;;;;;19.53;67.23;100696.84;2088426;28;20040;-66
2023/06/18 12:57:37;;;;;;;6.47;4.95;;;;;;;19.58;67.32;100709.47;2081584;28;20037;-66
2023/06/18 12:58:39;;;;;;;6.72;5.10;;;;;;;19.40;66.42;100714.28;2088654;28;20136;-67
2023/06/18 13:00:07;;;;;;;8.07;4.80;;;;;;;19.30;66.89;100701.06;2096097;28;20130;-67
2023/06/18 13:01:14;;;;;;;7.28;5.38;;;;;;;19.10;67.63;100708.09;2102747;28;20037;-69
2023/06/18 13:02:17;;;;;;;8.45;5.43;;;;;;;18.99;67.46;100702.25;2096964;28;20033;-69
2023/06/18 13:03:20;;;;;;;6.95;5.15;;;;;;;19.02;67.71;100707.03;2096924;28;20865;-69
2023/06/18 13:04:22;;;;;;;7.78;5.03;;;;;;;19.06;68.23;100701.72;2097033;28;20131;-69
2023/06/18 13:05:25;;;;;;;7.45;5.47;;;;;;;19.07;68.20;100698.66;2080771;28;20038;-66
2023/06/18 13:06:29;;;;;;;7.47;5.03;;;;;;;19.10;68.04;100703.44;2089210;28;20025;-69
2023/06/18 13:07:31;;;;;;;6.90;4.97;;;;;;;19.09;66.86;100695.59;2089001;28;20027;-66
2023/06/18 13:08:36;;;;;;;6.25;4.95;;;;;;;18.99;66.33;100694.09;2096315;28;20211;-67
2023/06/18 13:09:45;;;;;;;7.45;5.20;;;;;;;18.90;67.03;100698.78;2103928;28;20021;-69
2023/06/18 13:10:48;;;;;;;6.97;5.07;;;;;;;18.92;67.41;100696.53;2105015;28;20161;-68
2023/06/18 13:11:51;;;;;;;7.43;5.20;;;;;;;18.93;67.78;100695.41;2105469;28;20020;-67
2023/06/18 13:12:56;;;;;;;6.70;5.40;;;;;;;19.01;68.18;100700.00;2114006;28;20916;-67
2023/06/18 13:13:58;;;;;;;6.82;5.18;;;;;;;19.14;68.26;100709.84;2105323;28;20051;-67
2023/06/18 13:15:00;;;;;;;5.80;4.95;;;;;;;19.24;68.58;100702.41;2096634;28;20041;-67
2023/06/18 13:16:07;;;;;;;6.75;5.28;;;;;;;19.21;68.70;100704.66;2094034;28;22302;-68
2023/06/18 13:17:09;;;;;;;6.88;5.55;;;;;;;19.27;68.78;100705.25;2088257;28;20035;-68
2023/06/18 13:18:17;;;;;;;6.70;5.40;;;;;;;19.36;68.79;100710.63;2095458;28;20033;-69
2023/06/18 13:19:21;;;;;;;6.57;5.15;;;;;;;19.35;69.01;100709.81;2091608;28;20022;-69
2023/06/18 13:20:23;;;;;;;7.13;5.43;;;;;;;19.36;69.26;100705.97;2077409;28;20116;-68
2023/06/18 13:21:25;;;;;;;8.02;5.70;;;;;;;19.43;69.32;100706.22;2085024;28;20093;-68
2023/06/18 13:22:28;;;;;;;8.52;5.53;;;;;;;19.53;69.71;100704.22;2103021;28;20909;-68
2023/06/18 13:23:33;;;;;;;9.60;5.72;;;;;;;19.47;69.75;100700.91;2087292;28;20038;-68
2023/06/18 13:24:34;;;;;;;6.72;5.30;;;;;;;19.46;69.89;100704.75;2081084;28;20033;-66
2023/06/18 13:25:36;;;;;;;6.72;5.70;;;;;;;19.49;69.97;100706.03;2104361;28;20115;-66
2023/06/18 13:26:40;;;;;;;7.57;5.50;;;;;;;19.43;70.48;100710.88;2095897;28;20103;-66